createdAt,value
2022-12-12T00:01:24.543Z,84.99
2022-12-12T00:03:53.402Z,84.85
2022-12-12T00:06:23.043Z,85.33
2022-12-12T00:08:51.997Z,85.03
2022-12-12T00:11:21.130Z,84.71
2022-12-12T00:13:49.201Z,85.22
2022-12-12T00:16:21.542Z,85.45
2022-12-12T00:18:49.596Z,84.97
2022-12-12T00:21:19.890Z,85.05
2022-12-12T00:23:48.491Z,84.69
2022-12-12T00:26:20.383Z,84.80
2022-12-12T00:28:48.931Z,84.87
2022-12-12T00:31:18.878Z,84.95
2022-12-12T00:33:48.970Z,85.49
2022-12-12T00:36:18.270Z,85.13
2022-12-12T00:38:46.355Z,85.44
2022-12-12T00:41:14.414Z,84.99
2022-12-12T00:43:42.230Z,84.59
2022-12-12T00:46:13.305Z,85.18
2022-12-12T00:48:42.572Z,85.64
2022-12-12T00:51:14.230Z,85.08
2022-12-12T00:53:42.157Z,85.33
2022-12-12T00:56:10.220Z,84.25
2022-12-12T00:58:38.417Z,84.90
2022-12-12T01:01:10.467Z,85.62
2022-12-12T01:03:41.230Z,86.28
2022-12-12T01:06:12.042Z,86.04
2022-12-12T01:08:40.448Z,85.71
2022-12-12T01:11:13.279Z,84.68
2022-12-12T01:13:42.445Z,85.12
2022-12-12T01:16:11.346Z,85.72
2022-12-12T01:18:39.943Z,84.88
2022-12-12T01:21:10.340Z,85.80
2022-12-12T01:23:38.366Z,85.89
2022-12-12T01:26:08.626Z,86.29
2022-12-12T01:28:37.062Z,85.60
2022-12-12T01:31:05.503Z,85.36
2022-12-12T01:33:33.465Z,85.28
2022-12-12T01:36:01.461Z,85.29
2022-12-12T01:38:30.722Z,84.63
2022-12-12T01:40:58.734Z,84.59
2022-12-12T01:43:27.027Z,84.76
2022-12-12T01:46:30.445Z,85.71
2022-12-12T01:49:01.776Z,85.02
2022-12-12T01:51:30.806Z,84.17
2022-12-12T01:54:05.444Z,85.23
2022-12-12T01:56:34.226Z,85.82
2022-12-12T01:59:04.859Z,84.63
2022-12-12T02:01:33.072Z,84.86
2022-12-12T02:04:02.793Z,85.36
2022-12-12T02:06:31.911Z,85.04
2022-12-12T02:09:04.195Z,85.60
2022-12-12T02:11:33.309Z,84.71
2022-12-12T02:14:01.462Z,85.08
2022-12-12T02:16:40.254Z,85.51
2022-12-12T02:19:28.352Z,85.72
2022-12-12T02:22:02.751Z,84.84
2022-12-12T02:25:10.905Z,85.59
2022-12-12T02:28:08.117Z,85.53
2022-12-12T02:30:42.006Z,84.66
2022-12-12T02:33:27.645Z,85.80
2022-12-12T02:36:07.885Z,85.38
2022-12-12T02:38:43.076Z,86.98
2022-12-12T02:41:18.974Z,86.27
2022-12-12T02:43:59.069Z,86.16
2022-12-12T02:46:32.071Z,86.36
2022-12-12T02:49:05.811Z,86.92
2022-12-12T02:51:35.531Z,86.97
2022-12-12T02:54:06.700Z,85.60
2022-12-12T02:56:45.846Z,87.39
2022-12-12T02:59:18.421Z,87.45
2022-12-12T03:02:00.836Z,87.55
2022-12-12T03:04:59.000Z,86.79
2022-12-12T03:07:49.458Z,87.16
2022-12-12T03:10:35.290Z,87.48
2022-12-12T03:13:12.590Z,87.93
2022-12-12T03:15:48.679Z,87.90
2022-12-12T03:18:25.779Z,88.15
2022-12-12T03:20:59.787Z,87.94
2022-12-12T03:23:31.889Z,86.56
2022-12-12T03:26:04.421Z,87.38
2022-12-12T03:28:36.102Z,88.30
2022-12-12T03:31:09.996Z,86.97
2022-12-12T03:33:43.527Z,85.11
2022-12-12T03:36:17.172Z,86.38
2022-12-12T03:38:49.197Z,86.64
2022-12-12T03:41:21.830Z,87.02
2022-12-12T03:43:57.238Z,88.14
2022-12-12T03:46:29.197Z,88.29
2022-12-12T03:49:03.202Z,88.25
2022-12-12T03:51:36.027Z,88.50
2022-12-12T03:54:09.585Z,88.25
2022-12-12T03:56:45.782Z,87.72
2022-12-12T03:59:19.620Z,87.15
2022-12-12T04:01:52.698Z,87.27
2022-12-12T04:04:29.298Z,86.74
2022-12-12T04:07:04.112Z,86.72
2022-12-12T04:09:50.031Z,87.14
2022-12-12T04:12:39.972Z,86.99
2022-12-12T04:15:31.026Z,87.05
2022-12-12T04:18:09.786Z,87.84
2022-12-12T04:21:04.314Z,86.83
2022-12-12T04:23:42.950Z,87.46
2022-12-12T04:26:34.499Z,87.32
2022-12-12T04:29:08.793Z,87.54
2022-12-12T04:31:42.058Z,88.46
2022-12-12T04:34:16.292Z,87.69
2022-12-12T04:36:47.485Z,88.10
2022-12-12T04:39:19.691Z,87.83
2022-12-12T04:41:49.672Z,88.30
2022-12-12T04:44:19.963Z,87.99
2022-12-12T04:46:53.010Z,87.68
2022-12-12T04:49:26.461Z,87.15
2022-12-12T04:51:59.253Z,87.08
2022-12-12T04:54:33.688Z,87.19
2022-12-12T04:57:05.878Z,87.77
2022-12-12T04:59:34.500Z,87.80
2022-12-12T05:02:11.647Z,87.79
2022-12-12T05:04:48.141Z,87.46
2022-12-12T05:07:21.048Z,88.23
2022-12-12T05:09:51.171Z,87.61
2022-12-12T05:12:19.035Z,88.23
2022-12-12T05:14:47.087Z,88.08
2022-12-12T05:17:21.364Z,87.93
2022-12-12T05:19:49.504Z,88.02
2022-12-12T05:22:17.346Z,87.27
2022-12-12T05:24:45.171Z,88.66
2022-12-12T05:27:14.579Z,87.75
2022-12-12T05:29:42.380Z,88.60
2022-12-12T05:32:10.347Z,87.86
2022-12-12T05:34:38.697Z,87.71
2022-12-12T05:37:06.587Z,88.51
2022-12-12T05:39:34.566Z,88.52
2022-12-12T05:42:02.486Z,88.96
2022-12-12T05:44:32.059Z,89.03
2022-12-12T05:46:59.907Z,88.37
2022-12-12T05:49:27.772Z,88.31
2022-12-12T05:51:55.622Z,88.36
2022-12-12T05:54:23.508Z,87.92
2022-12-12T05:56:51.474Z,87.85
2022-12-12T05:59:19.299Z,88.23
2022-12-12T06:01:48.601Z,88.42
2022-12-12T06:04:16.526Z,87.45
2022-12-12T06:06:44.560Z,88.49
2022-12-12T06:09:13.241Z,88.82
2022-12-12T06:11:41.136Z,88.57
2022-12-12T06:14:09.352Z,88.21
2022-12-12T06:16:37.786Z,87.46
2022-12-12T06:19:07.214Z,88.20
2022-12-12T06:21:35.112Z,87.85
2022-12-12T06:24:06.078Z,87.96
2022-12-12T06:26:34.140Z,88.84
2022-12-12T06:29:02.129Z,88.39
2022-12-12T06:31:30.304Z,87.86
2022-12-12T06:33:58.419Z,87.92
2022-12-12T06:36:27.784Z,88.39
2022-12-12T06:38:58.859Z,87.99
2022-12-12T06:41:29.057Z,87.35
2022-12-12T06:43:57.084Z,87.31
2022-12-12T06:46:27.734Z,87.32
2022-12-12T06:48:57.173Z,87.48
2022-12-12T06:51:29.005Z,88.35
2022-12-12T06:53:57.618Z,88.16
2022-12-12T06:56:27.267Z,88.49
2022-12-12T06:58:56.343Z,88.41
2022-12-12T07:01:25.055Z,88.94
2022-12-12T07:03:53.639Z,87.58
2022-12-12T07:06:24.380Z,87.89
2022-12-12T07:08:53.946Z,88.20
2022-12-12T07:11:24.209Z,87.96
2022-12-12T07:13:52.792Z,88.47
2022-12-12T07:16:21.243Z,89.25
2022-12-12T07:18:49.661Z,89.04
2022-12-12T07:21:19.593Z,88.37
2022-12-12T07:23:47.772Z,89.10
2022-12-12T07:26:19.568Z,89.26
2022-12-12T07:28:48.418Z,88.92
2022-12-12T07:31:19.114Z,89.43
2022-12-12T07:33:47.353Z,88.88
2022-12-12T07:36:16.768Z,88.72
2022-12-12T07:38:45.074Z,88.54
2022-12-12T07:41:16.612Z,88.76
2022-12-12T07:43:46.887Z,88.60
2022-12-12T07:46:16.964Z,89.00
2022-12-12T07:48:45.775Z,89.26
2022-12-12T07:51:14.265Z,88.70
2022-12-12T07:53:42.322Z,88.26
2022-12-12T07:56:12.430Z,87.97
2022-12-12T07:58:40.823Z,87.63
2022-12-12T08:01:16.029Z,87.66
2022-12-12T08:03:44.763Z,87.17
2022-12-12T08:06:14.059Z,88.89
2022-12-12T08:08:41.997Z,88.95
2022-12-12T08:11:11.802Z,90.88
2022-12-12T08:13:41.145Z,86.22
2022-12-12T08:16:15.681Z,86.80
2022-12-12T08:18:44.045Z,87.19
2022-12-12T08:21:13.228Z,87.53
2022-12-12T08:23:42.050Z,87.18
2022-12-12T08:26:11.914Z,87.31
2022-12-12T08:28:41.339Z,87.16
2022-12-12T08:31:09.666Z,87.31
2022-12-12T08:33:39.077Z,87.40
2022-12-12T08:36:15.980Z,86.90
2022-12-12T08:38:44.199Z,87.05
2022-12-12T08:41:15.091Z,86.40
2022-12-12T08:43:44.041Z,85.66
2022-12-12T08:46:17.786Z,86.38
2022-12-12T08:48:48.497Z,85.84
2022-12-12T08:51:17.720Z,85.49
2022-12-12T08:53:45.896Z,86.28
2022-12-12T08:56:14.145Z,86.38
2022-12-12T08:58:42.043Z,86.28
2022-12-12T09:01:12.270Z,85.99
2022-12-12T09:03:40.730Z,85.31
2022-12-12T09:06:11.264Z,84.90
2022-12-12T09:08:39.677Z,85.10
2022-12-12T09:11:08.575Z,85.79
2022-12-12T09:13:37.647Z,84.77
2022-12-12T09:16:06.560Z,85.27
2022-12-12T09:18:34.411Z,85.45
2022-12-12T09:21:02.911Z,84.49
2022-12-12T09:23:32.694Z,84.82
2022-12-12T09:26:05.955Z,84.22
2022-12-12T09:28:34.434Z,84.09
2022-12-12T09:31:05.180Z,83.98
2022-12-12T09:33:33.484Z,83.24
2022-12-12T09:36:03.863Z,83.37
2022-12-12T09:38:33.417Z,83.33
2022-12-12T09:41:03.794Z,83.92
2022-12-12T09:43:35.573Z,83.77
2022-12-12T09:46:06.419Z,83.71
2022-12-12T09:48:43.272Z,83.39
2022-12-12T09:51:11.866Z,82.22
2022-12-12T09:53:43.089Z,81.94
2022-12-12T09:56:16.302Z,81.22
2022-12-12T09:58:55.265Z,80.50
2022-12-12T10:01:31.346Z,76.23
2022-12-12T10:04:11.447Z,77.13
2022-12-12T10:06:47.960Z,79.01
2022-12-12T10:09:39.995Z,79.14
2022-12-12T10:12:13.187Z,79.55
2022-12-12T10:14:45.315Z,79.66
2022-12-12T10:17:17.608Z,78.90
2022-12-12T10:19:50.200Z,79.18
2022-12-12T10:22:26.905Z,79.75
2022-12-12T10:25:00.783Z,80.25
2022-12-12T10:27:28.924Z,80.64
2022-12-12T10:30:01.692Z,79.17
2022-12-12T10:32:39.667Z,76.85
2022-12-12T10:35:21.263Z,76.61
2022-12-12T10:38:06.950Z,76.39
2022-12-12T10:40:45.647Z,79.34
2022-12-12T10:43:19.767Z,80.78
2022-12-12T10:45:58.980Z,82.48
2022-12-12T10:48:28.402Z,82.47
2022-12-12T10:51:01.679Z,82.59
2022-12-12T10:53:31.184Z,81.46
2022-12-12T10:56:05.226Z,81.88
2022-12-12T10:58:38.468Z,82.24
2022-12-12T11:01:13.609Z,81.84
2022-12-12T11:03:45.828Z,81.84
2022-12-12T11:06:16.727Z,81.90
2022-12-12T11:08:55.448Z,82.45
2022-12-12T11:11:27.136Z,81.87
2022-12-12T11:13:56.888Z,81.71
2022-12-12T11:16:27.350Z,82.46
2022-12-12T11:19:06.067Z,82.21
2022-12-12T11:21:36.917Z,82.91
2022-12-12T11:24:10.314Z,82.47
2022-12-12T11:26:46.607Z,81.98
2022-12-12T11:29:29.888Z,82.36
2022-12-12T11:31:59.629Z,81.85
2022-12-12T11:34:29.757Z,82.41
2022-12-12T11:37:00.545Z,81.72
2022-12-12T11:39:33.721Z,82.03
2022-12-12T11:42:05.286Z,82.31
2022-12-12T11:44:36.105Z,82.27
2022-12-12T11:47:24.032Z,82.05
2022-12-12T11:49:54.048Z,81.70
2022-12-12T11:52:24.712Z,82.03
2022-12-12T11:54:54.066Z,81.88
2022-12-12T11:57:40.202Z,81.65
2022-12-12T12:00:14.500Z,82.20
2022-12-12T12:03:05.810Z,81.46
2022-12-12T12:05:42.242Z,81.32
2022-12-12T12:08:25.791Z,80.77
2022-12-12T12:11:07.848Z,80.47
2022-12-12T12:13:52.683Z,80.78
2022-12-12T12:16:29.458Z,80.56
2022-12-12T12:19:08.341Z,80.58
2022-12-12T12:21:46.851Z,80.49
2022-12-12T12:24:34.732Z,79.51
2022-12-12T12:27:09.413Z,80.48
2022-12-12T12:29:57.034Z,79.98
2022-12-12T12:32:35.549Z,80.31
2022-12-12T12:35:19.764Z,79.43
2022-12-12T12:37:59.740Z,79.31
2022-12-12T12:40:39.955Z,79.94
2022-12-12T12:43:36.630Z,78.68
2022-12-12T12:46:13.651Z,79.46
2022-12-12T12:48:44.803Z,79.36
2022-12-12T12:51:17.321Z,79.87
2022-12-12T12:53:49.987Z,80.52
2022-12-12T12:56:26.585Z,79.69
2022-12-12T12:58:59.130Z,79.33
2022-12-12T13:01:34.055Z,80.11
2022-12-12T13:04:06.917Z,78.16
2022-12-12T13:06:48.720Z,78.86
2022-12-12T13:09:29.732Z,78.99
2022-12-12T13:12:02.796Z,78.94
2022-12-12T13:14:40.851Z,79.20
2022-12-12T13:17:18.061Z,79.44
2022-12-12T13:19:50.024Z,79.61
2022-12-12T13:22:51.161Z,79.62
2022-12-12T13:25:31.821Z,79.85
2022-12-12T13:28:01.441Z,79.79
2022-12-12T13:30:41.069Z,80.28
2022-12-12T13:33:31.474Z,79.54
2022-12-12T13:36:07.216Z,80.67
2022-12-12T13:38:35.820Z,81.15
2022-12-12T13:41:06.374Z,79.31
2022-12-12T13:43:44.663Z,78.99
2022-12-12T13:46:37.673Z,79.00
2022-12-12T13:49:28.630Z,79.03
2022-12-12T13:52:24.904Z,80.07
2022-12-12T13:55:09.487Z,79.31
2022-12-12T13:57:37.894Z,78.95
2022-12-12T14:00:19.229Z,78.61
2022-12-12T14:03:01.287Z,79.01
2022-12-12T14:05:35.286Z,78.16
2022-12-12T14:08:08.408Z,78.87
2022-12-12T14:10:38.971Z,78.14
2022-12-12T14:13:19.243Z,78.41
2022-12-12T14:15:49.409Z,78.84
2022-12-12T14:18:25.839Z,78.50
2022-12-12T14:21:02.457Z,78.72
2022-12-12T14:23:33.748Z,79.17
2022-12-12T14:26:01.924Z,79.21
2022-12-12T14:28:32.187Z,79.11
2022-12-12T14:31:11.424Z,79.32
2022-12-12T14:34:10.356Z,79.41
2022-12-12T14:37:04.602Z,79.03
2022-12-12T14:40:05.188Z,79.29
2022-12-12T14:43:18.698Z,79.32
2022-12-12T14:45:53.104Z,79.12
2022-12-12T14:48:24.032Z,80.42
2022-12-12T14:50:58.640Z,80.13
2022-12-12T14:53:32.960Z,79.90
2022-12-12T14:56:03.884Z,79.91
2022-12-12T14:58:35.327Z,80.49
2022-12-12T15:01:06.003Z,80.40
2022-12-12T15:03:39.792Z,79.46
2022-12-12T15:06:31.397Z,80.67
2022-12-12T15:09:10.991Z,80.89
2022-12-12T15:11:39.060Z,80.66
2022-12-12T15:14:07.027Z,81.32
2022-12-12T15:16:47.756Z,81.77
2022-12-12T15:19:19.524Z,82.38
2022-12-12T15:21:48.628Z,82.48
2022-12-12T15:24:23.302Z,84.15
2022-12-12T15:26:54.023Z,83.44
2022-12-12T15:29:25.128Z,84.02
2022-12-12T15:31:58.425Z,84.66
2022-12-12T15:34:39.021Z,84.28
2022-12-12T15:37:27.324Z,84.10
2022-12-12T15:40:13.498Z,83.86
2022-12-12T15:42:44.063Z,83.92
2022-12-12T15:45:20.593Z,83.55
2022-12-12T15:47:53.775Z,83.41
2022-12-12T15:50:25.504Z,84.36
2022-12-12T15:53:06.805Z,84.08
2022-12-12T15:55:36.597Z,84.23
2022-12-12T15:58:04.798Z,83.31
2022-12-12T16:00:35.661Z,81.77
2022-12-12T16:03:07.201Z,81.78
2022-12-12T16:05:37.210Z,82.28
2022-12-12T16:08:31.691Z,82.48
2022-12-12T16:11:04.345Z,82.83
2022-12-12T16:13:42.143Z,82.89
2022-12-12T16:16:36.376Z,83.34
2022-12-12T16:19:05.384Z,82.51
2022-12-12T16:21:36.679Z,84.18
2022-12-12T16:24:12.957Z,84.96
2022-12-12T16:26:42.305Z,85.57
2022-12-12T16:29:10.362Z,86.37
2022-12-12T16:31:38.342Z,86.84
2022-12-12T16:34:06.683Z,86.37
2022-12-12T16:36:41.464Z,85.65
2022-12-12T16:39:10.974Z,85.30
2022-12-12T16:41:38.920Z,86.21
2022-12-12T16:44:10.306Z,85.92
2022-12-12T16:46:38.185Z,86.01
2022-12-12T16:49:09.387Z,87.07
2022-12-12T16:51:42.017Z,87.17
2022-12-12T16:54:16.822Z,87.09
2022-12-12T16:56:50.679Z,87.50
2022-12-12T16:59:20.137Z,87.75
2022-12-12T17:01:48.000Z,87.84
2022-12-12T17:04:22.203Z,87.76
2022-12-12T17:06:50.767Z,88.07
2022-12-12T17:09:19.802Z,88.72
2022-12-12T17:11:47.816Z,87.88
2022-12-12T17:14:29.498Z,87.56
2022-12-12T17:16:57.701Z,87.34
2022-12-12T17:19:28.615Z,87.05
2022-12-12T17:21:56.983Z,87.88
2022-12-12T17:24:26.256Z,87.75
2022-12-12T17:26:54.275Z,87.13
2022-12-12T17:29:23.692Z,87.35
2022-12-12T17:31:51.819Z,87.67
2022-12-12T17:34:20.069Z,87.91
2022-12-12T17:36:47.953Z,87.86
2022-12-12T17:39:15.914Z,88.01
2022-12-12T17:41:43.718Z,87.63
2022-12-12T17:44:11.618Z,87.67
2022-12-12T17:46:41.838Z,88.16
2022-12-12T17:49:09.841Z,87.90
2022-12-12T17:51:37.926Z,87.91
2022-12-12T17:54:06.614Z,88.41
2022-12-12T17:56:34.611Z,88.11
2022-12-12T17:59:05.963Z,88.73
2022-12-12T18:01:34.312Z,88.60
2022-12-12T18:04:04.630Z,88.72
2022-12-12T18:06:34.454Z,88.58
2022-12-12T18:09:03.097Z,88.64
2022-12-12T18:11:33.028Z,88.53
2022-12-12T18:14:02.784Z,88.33
2022-12-12T18:16:35.226Z,88.85
2022-12-12T18:19:05.875Z,88.96
2022-12-12T18:21:59.678Z,88.74
2022-12-12T18:24:24.856Z,88.62
2022-12-12T18:26:53.799Z,88.90
2022-12-12T18:29:22.371Z,88.90
2022-12-12T18:31:50.605Z,88.47
2022-12-12T18:34:20.620Z,88.61
2022-12-12T18:36:49.412Z,88.30
2022-12-12T18:39:18.154Z,88.23
2022-12-12T18:41:46.147Z,88.42
2022-12-12T18:44:16.067Z,88.31
2022-12-12T18:46:44.371Z,88.73
2022-12-12T18:49:15.298Z,89.17
2022-12-12T18:51:46.212Z,88.79
2022-12-12T18:54:16.321Z,88.69
2022-12-12T18:56:45.277Z,89.00
2022-12-12T18:59:14.235Z,89.25
2022-12-12T19:01:42.651Z,89.49
2022-12-12T19:04:14.187Z,89.25
2022-12-12T19:06:45.681Z,89.39
2022-12-12T19:09:15.923Z,89.05
2022-12-12T19:11:44.957Z,89.48
2022-12-12T19:14:14.970Z,89.26
2022-12-12T19:16:43.595Z,89.69
2022-12-12T19:19:12.431Z,89.75
2022-12-12T19:21:40.783Z,89.34
2022-12-12T19:24:12.408Z,89.19
2022-12-12T19:26:41.507Z,89.77
2022-12-12T19:29:13.157Z,89.65
2022-12-12T19:31:41.373Z,89.33
2022-12-12T19:34:11.454Z,89.49
2022-12-12T19:36:42.467Z,89.54
2022-12-12T19:39:12.880Z,89.77
2022-12-12T19:41:40.847Z,89.15
2022-12-12T19:44:12.450Z,89.26
2022-12-12T19:46:42.384Z,89.45
2022-12-12T19:49:12.876Z,89.19
2022-12-12T19:51:41.251Z,88.88
2022-12-12T19:54:14.410Z,89.48
2022-12-12T19:56:42.557Z,89.35
2022-12-12T19:59:12.495Z,89.48
2022-12-12T20:01:41.552Z,89.66
2022-12-12T20:04:15.457Z,89.83
2022-12-12T20:06:46.090Z,89.26
2022-12-12T20:09:17.674Z,89.22
2022-12-12T20:11:46.047Z,88.98
2022-12-12T20:14:16.115Z,89.03
2022-12-12T20:16:44.560Z,89.16
2022-12-12T20:19:13.626Z,89.54
2022-12-12T20:22:00.699Z,89.57
2022-12-12T20:24:32.623Z,89.98
2022-12-12T20:27:03.088Z,90.14
2022-12-12T20:29:31.694Z,89.31
2022-12-12T20:32:01.346Z,89.30
2022-12-12T20:34:30.044Z,89.38
2022-12-12T20:36:58.895Z,89.33
2022-12-12T20:39:26.923Z,88.06
2022-12-12T20:41:57.027Z,88.47
2022-12-12T20:44:25.688Z,88.83
2022-12-12T20:46:55.060Z,88.50
2022-12-12T20:49:24.713Z,88.45
2022-12-12T20:51:55.866Z,89.13
2022-12-12T20:54:25.955Z,89.70
2022-12-12T20:56:56.107Z,89.29
2022-12-12T20:59:24.715Z,89.15
2022-12-12T21:01:53.246Z,88.51
2022-12-12T21:04:21.924Z,88.68
2022-12-12T21:06:51.402Z,89.58
2022-12-12T21:09:24.868Z,88.85
2022-12-12T21:11:54.389Z,89.53
2022-12-12T21:14:26.539Z,89.73
2022-12-12T21:16:55.502Z,89.12
2022-12-12T21:19:24.266Z,88.96
2022-12-12T21:21:52.797Z,89.27
2022-12-12T21:24:21.683Z,89.71
2022-12-12T21:26:49.912Z,90.17
2022-12-12T21:29:18.319Z,89.40
2022-12-12T21:31:51.717Z,89.23
2022-12-12T21:34:22.109Z,88.42
2022-12-12T21:36:53.987Z,89.10
2022-12-12T21:39:23.123Z,89.31
2022-12-12T21:41:51.748Z,89.60
2022-12-12T21:44:20.387Z,89.56
2022-12-12T21:46:50.102Z,89.81
2022-12-12T21:49:26.054Z,89.22
2022-12-12T21:51:55.866Z,89.30
2022-12-12T21:54:24.394Z,89.05
2022-12-12T21:56:53.310Z,89.36
2022-12-12T21:59:21.518Z,88.96
2022-12-12T22:01:50.874Z,89.06
2022-12-12T22:04:18.910Z,89.18
2022-12-12T22:06:47.106Z,89.69
2022-12-12T22:09:15.200Z,90.26
2022-12-12T22:11:49.170Z,89.72
2022-12-12T22:14:20.892Z,88.87
2022-12-12T22:16:50.399Z,89.15
2022-12-12T22:19:18.986Z,88.44
2022-12-12T22:21:48.312Z,89.68
2022-12-12T22:24:16.659Z,89.00
2022-12-12T22:26:46.547Z,89.54
2022-12-12T22:29:16.947Z,89.28
2022-12-12T22:31:45.851Z,88.92
2022-12-12T22:34:16.989Z,89.05
2022-12-12T22:36:46.117Z,88.74
2022-12-12T22:39:16.680Z,88.99
2022-12-12T22:41:45.652Z,88.81
2022-12-12T22:44:16.784Z,88.73
2022-12-12T22:46:45.916Z,88.96
2022-12-12T22:49:16.619Z,88.81
2022-12-12T22:51:45.659Z,88.80
2022-12-12T22:54:13.892Z,88.71
2022-12-12T22:56:42.687Z,89.01
2022-12-12T22:59:12.902Z,89.24
2022-12-12T23:01:41.933Z,89.83
2022-12-12T23:04:10.662Z,89.51
2022-12-12T23:06:39.987Z,89.84
2022-12-12T23:09:14.177Z,89.70
2022-12-12T23:11:42.873Z,88.71
2022-12-12T23:14:15.330Z,89.24
2022-12-12T23:16:43.797Z,88.93
2022-12-12T23:19:14.048Z,88.97
2022-12-12T23:21:44.021Z,89.12
2022-12-12T23:24:12.232Z,88.39
2022-12-12T23:26:40.812Z,88.59
2022-12-12T23:29:11.132Z,89.07
2022-12-12T23:31:39.715Z,89.50
2022-12-12T23:34:15.239Z,88.84
2022-12-12T23:36:44.938Z,89.42
2022-12-12T23:39:14.060Z,89.18
2022-12-12T23:41:42.916Z,88.80
2022-12-12T23:44:13.131Z,88.65
2022-12-12T23:46:41.177Z,88.55
2022-12-12T23:49:14.697Z,89.06
2022-12-12T23:51:47.867Z,89.07
2022-12-12T23:54:18.107Z,88.58
2022-12-12T23:56:46.108Z,88.86
2022-12-12T23:59:17.920Z,88.78
